Map

Track Data

SID SEASON NUMBER BASIN SUBBASIN NAME ISO_TIME NATURE LAT LON WMO_WIND WMO_PRES WMO_AGENCY TRACK_TYPE DIST2LAND LANDFALL IFLAG USA_AGENCY USA_ATCF_ID USA_LAT USA_LON USA_RECORD USA_STATUS USA_WIND USA_PRES USA_SSHS USA_R34_NE USA_R34_SE USA_R34_SW USA_R34_NW USA_R50_NE USA_R50_SE USA_R50_SW USA_R50_NW USA_R64_NE USA_R64_SE USA_R64_SW USA_R64_NW USA_POCI USA_ROCI USA_RMW USA_EYE TOKYO_LAT TOKYO_LON TOKYO_GRADE TOKYO_WIND TOKYO_PRES TOKYO_R50_DIR TOKYO_R50_LONG TOKYO_R50_SHORT TOKYO_R30_DIR TOKYO_R30_LONG TOKYO_R30_SHORT TOKYO_LAND CMA_LAT CMA_LON CMA_CAT CMA_WIND CMA_PRES HKO_LAT HKO_LON HKO_CAT HKO_WIND HKO_PRES NEWDELHI_LAT NEWDELHI_LON NEWDELHI_GRADE NEWDELHI_WIND NEWDELHI_PRES NEWDELHI_CI NEWDELHI_DP NEWDELHI_POCI REUNION_LAT REUNION_LON REUNION_TYPE REUNION_WIND REUNION_PRES REUNION_TNUM REUNION_CI REUNION_RMW REUNION_R34_NE REUNION_R34_SE REUNION_R34_SW REUNION_R34_NW REUNION_R50_NE REUNION_R50_SE REUNION_R50_SW REUNION_R50_NW REUNION_R64_NE REUNION_R64_SE REUNION_R64_SW REUNION_R64_NW BOM_LAT BOM_LON BOM_TYPE BOM_WIND BOM_PRES BOM_TNUM BOM_CI BOM_RMW BOM_R34_NE BOM_R34_SE BOM_R34_SW BOM_R34_NW BOM_R50_NE BOM_R50_SE BOM_R50_SW BOM_R50_NW BOM_R64_NE BOM_R64_SE BOM_R64_SW BOM_R64_NW BOM_ROCI BOM_POCI BOM_EYE BOM_POS_METHOD BOM_PRES_METHOD NADI_LAT NADI_LON NADI_CAT NADI_WIND NADI_PRES WELLINGTON_LAT WELLINGTON_LON WELLINGTON_WIND WELLINGTON_PRES DS824_LAT DS824_LON DS824_STAGE DS824_WIND DS824_PRES TD9636_LAT TD9636_LON TD9636_STAGE TD9636_WIND TD9636_PRES TD9635_LAT TD9635_LON TD9635_WIND TD9635_PRES TD9635_ROCI NEUMANN_LAT NEUMANN_LON NEUMANN_CLASS NEUMANN_WIND NEUMANN_PRES MLC_LAT MLC_LON MLC_CLASS MLC_WIND MLC_PRES USA_GUST BOM_GUST BOM_GUST_PER REUNION_GUST REUNION_GUST_PER USA_SEAHGT USA_SEARAD_NE USA_SEARAD_SE USA_SEARAD_SW USA_SEARAD_NW STORM_SPEED STORM_DIR
1910242N24131 1910 35 WP MM NOT_NAMED 1910-08-29 16:00:00 NR 23.5000 131.200 main 838 827 __________O___ -1 23.5000 131.200 7 4 328
1910242N24131 1910 35 WP MM NOT_NAMED 1910-08-29 18:00:00 NR 23.6252 131.119 main 827 804 __________P___ -1 23.6252 131.119 7 4 328
1910242N24131 1910 35 WP MM NOT_NAMED 1910-08-29 21:00:00 NR 23.8097 130.984 main 804 781 __________P___ -1 23.8097 130.984 7 5 323
1910242N24131 1910 35 WP MM NOT_NAMED 1910-08-30 00:00:00 NR 23.9861 130.815 main 781 770 __________P___ -1 23.9861 130.815 7 5 313
1910242N24131 1910 35 WP MM NOT_NAMED 1910-08-30 03:00:00 NR 24.1494 130.591 main 770 759 __________P___ -1 24.1494 130.591 7 5 307
1910242N24131 1910 35 WP MM NOT_NAMED 1910-08-30 04:00:00 NR 24.2000 130.500 main 759 748 __________O___ -1 24.2000 130.500 7 6 298
1910242N24131 1910 35 WP MM NOT_NAMED 1910-08-30 06:00:00 NR 24.2950 130.293 main 749 739 __________P___ -1 24.2950 130.293 7 7 293
1910242N24131 1910 35 WP MM NOT_NAMED 1910-08-30 09:00:00 NR 24.4247 129.932 main 741 731 __________P___ -1 24.4247 129.932 7 7 290
1910242N24131 1910 35 WP MM NOT_NAMED 1910-08-30 12:00:00 NR 24.5446 129.535 main 735 716 __________P___ -1 24.5446 129.535 7 8 288
1910242N24131 1910 35 WP MM NOT_NAMED 1910-08-30 15:00:00 NR 24.6609 129.131 main 716 706 __________P___ -1 24.6609 129.131 7 8 288
1910242N24131 1910 35 WP MM NOT_NAMED 1910-08-30 16:00:00 NR 24.7000 129.000 main 706 685 __________O___ -1 24.7000 129.000 4 7 291
1910242N24131 1910 35 WP MM NOT_NAMED 1910-08-30 18:00:00 NR 24.7883 128.761 main 685 644 __________P___ -1 24.7883 128.761 4 7 292
1910242N24131 1910 35 WP MM NOT_NAMED 1910-08-30 21:00:00 NR 24.9211 128.409 main 644 614 __________P___ -1 24.9211 128.409 4 7 292
1910242N24131 1910 35 WP MM NOT_NAMED 1910-08-31 00:00:00 NR 25.0488 128.061 main 614 573 __________P___ -1 25.0488 128.061 4 7 291
1910242N24131 1910 35 WP MM NOT_NAMED 1910-08-31 03:00:00 NR 25.1649 127.715 main 573 563 __________P___ -1 25.1649 127.715 4 7 290
1910242N24131 1910 35 WP MM NOT_NAMED 1910-08-31 04:00:00 NR 25.2000 127.600 main 563 543 __________O___ -1 25.2000 127.600 4 7 287
1910242N24131 1910 35 WP MM NOT_NAMED 1910-08-31 06:00:00 NR 25.2639 127.361 main 544 503 __________P___ -1 25.2639 127.361 4 7 285
1910242N24131 1910 35 WP MM NOT_NAMED 1910-08-31 09:00:00 NR 25.3474 127.003 main 503 474 __________P___ -1 25.3474 127.003 4 7 284
1910242N24131 1910 35 WP MM NOT_NAMED 1910-08-31 12:00:00 NR 25.4187 126.651 main 474 435 __________P___ -1 25.4187 126.651 4 6 282
1910242N24131 1910 35 WP MM NOT_NAMED 1910-08-31 15:00:00 NR 25.4808 126.310 main 435 425 __________P___ -1 25.4808 126.310 4 6 281
1910242N24131 1910 35 WP MM NOT_NAMED 1910-08-31 16:00:00 NR 25.5000 126.200 main 425 405 __________O___ -1 25.5000 126.200 4 5 282
1910242N24131 1910 35 WP MM NOT_NAMED 1910-08-31 18:00:00 NR 25.5326 126.035 main 405 387 __________P___ -1 25.5326 126.035 4 4 282
1910242N24131 1910 35 WP MM NOT_NAMED 1910-08-31 21:00:00 NR 25.5753 125.802 main 387 357 __________P___ -1 25.5753 125.802 4 5 281
1910242N24131 1910 35 WP MM NOT_NAMED 1910-09-01 00:00:00 NR 25.6201 125.530 main 357 330 __________P___ -1 25.6201 125.530 4 6 280
1910242N24131 1910 35 WP MM NOT_NAMED 1910-09-01 03:00:00 NR 25.6768 125.157 main 330 311 __________P___ -1 25.6768 125.157 4 7 279
1910242N24131 1910 35 WP MM NOT_NAMED 1910-09-01 04:00:00 NR 25.7000 125.000 main 311 275 __________O___ -1 25.7000 125.000 4 11 283
1910242N24131 1910 35 WP MM NOT_NAMED 1910-09-01 06:00:00 NR 25.7935 124.586 main 275 215 __________P___ -1 25.7935 124.586 4 13 283
1910242N24131 1910 35 WP MM NOT_NAMED 1910-09-01 09:00:00 NR 25.9465 123.851 main 215 158 __________P___ -1 25.9465 123.851 4 14 281
1910242N24131 1910 35 WP MM NOT_NAMED 1910-09-01 12:00:00 NR 26.0692 123.046 main 158 117 __________P___ -1 26.0692 123.046 4 14 277
1910242N24131 1910 35 WP MM NOT_NAMED 1910-09-01 15:00:00 NR 26.1119 122.250 main 117 108 __________P___ -1 26.1119 122.250 4 14 272
1910242N24131 1910 35 WP MM NOT_NAMED 1910-09-01 16:00:00 NR 26.1000 122.000 main 108 89 __________O___ -1 26.1000 122.000 4 12 261
1910242N24131 1910 35 WP MM NOT_NAMED 1910-09-01 18:00:00 NR 26.0146 121.573 main 89 73 __________P___ -1 26.0146 121.573 4 12 252
1910242N24131 1910 35 WP MM NOT_NAMED 1910-09-01 21:00:00 NR 25.7993 120.977 main 78 71 __________P___ -1 25.7993 120.977 4 12 244
1910242N24131 1910 35 WP MM NOT_NAMED 1910-09-02 00:00:00 NR 25.5155 120.419 main 71 30 __________P___ -1 25.5155 120.419 4 12 239
1910242N24131 1910 35 WP MM NOT_NAMED 1910-09-02 03:00:00 NR 25.2034 119.879 main 30 22 __________P___ -1 25.2034 119.879 4 12 237
1910242N24131 1910 35 WP MM NOT_NAMED 1910-09-02 04:00:00 NR 25.1000 119.700 main 24 22 __________O___ -1 25.1000 119.700 4 11 240
1910242N24131 1910 35 WP MM NOT_NAMED 1910-09-02 06:00:00 NR 24.9217 119.333 main 24 10 __________P___ -1 24.9217 119.333 4 11 241
1910242N24131 1910 35 WP MM NOT_NAMED 1910-09-02 09:00:00 NR 24.6484 118.790 main 10 0 __________P___ -1 24.6484 118.790 4 11 241
1910242N24131 1910 35 WP MM NOT_NAMED 1910-09-02 12:00:00 NR 24.3709 118.245 main 11 0 __________P___ -1 24.3709 118.245 4 11 241
1910242N24131 1910 35 WP MM NOT_NAMED 1910-09-02 15:00:00 NR 24.0925 117.689 main 0 0 __________P___ -1 24.0925 117.689 4 12 241
1910242N24131 1910 35 WP MM NOT_NAMED 1910-09-02 16:00:00 NR 24.0000 117.500 main 0 0 __________O___ -1 24.0000 117.500 4 12 242
1910242N24131 1910 35 WP MM NOT_NAMED 1910-09-02 18:00:00 NR 23.8188 117.117 main 0 0 __________P___ -1 23.8188 117.117 4 12 243
1910242N24131 1910 35 WP MM NOT_NAMED 1910-09-02 21:00:00 NR 23.5474 116.530 main 0 0 __________P___ -1 23.5474 116.530 4 12 243
1910242N24131 1910 35 WP MM NOT_NAMED 1910-09-03 00:00:00 NR 23.2737 115.928 main 0 0 __________P___ -1 23.2737 115.928 4 13 244
1910242N24131 1910 35 WP MM NOT_NAMED 1910-09-03 03:00:00 NR 22.9947 115.310 main 0 0 __________P___ -1 22.9947 115.310 4 13 244
1910242N24131 1910 35 WP MM NOT_NAMED 1910-09-03 04:00:00 NR 22.9000 115.100 main 0 0 __________O___ -1 22.9000 115.100 4 13 244
1910242N24131 1910 35 WP MM NOT_NAMED 1910-09-03 06:00:00 NR 22.7053 114.678 main 0 0 __________P___ -1 22.7053 114.678 4 13 243
1910242N24131 1910 35 WP MM NOT_NAMED 1910-09-03 09:00:00 NR 22.4073 114.033 main 0 0 __________P___ -1 22.4073 114.033 4 13 243
1910242N24131 1910 35 WP MM NOT_NAMED 1910-09-03 12:00:00 NR 22.1048 113.378 main 10 0 __________P___ -1 22.1048 113.378 4 14 244
1910242N24131 1910 35 WP MM NOT_NAMED 1910-09-03 15:00:00 NR 21.8010 112.719 main 10 0 __________P___ -1 21.8010 112.719 4 14 244
1910242N24131 1910 35 WP MM NOT_NAMED 1910-09-03 16:00:00 NR 21.7000 112.500 main 11 10 __________O___ -1 21.7000 112.500 4 14 243
1910242N24131 1910 35 WP MM NOT_NAMED 1910-09-03 18:00:00 NR 21.4816 112.048 main 23 22 __________P___ -1 21.4816 112.048 4 14 243
1910242N24131 1910 35 WP MM NOT_NAMED 1910-09-03 21:00:00 NR 21.1538 111.370 main 24 33 __________P___ -1 21.1538 111.370 4 14 243
1910242N24131 1910 35 WP MM NOT_NAMED 1910-09-04 00:00:00 NR 20.8448 110.711 main 33 0 __________P___ -1 20.8448 110.711 4 13 244
1910242N24131 1910 35 WP MM NOT_NAMED 1910-09-04 03:00:00 NR 20.5766 110.093 main 0 0 __________P___ -1 20.5766 110.093 4 13 246
1910242N24131 1910 35 WP MM NOT_NAMED 1910-09-04 04:00:00 NR 20.5000 109.900 main 0 0 __________O___ -1 20.5000 109.900 4 11 249
1910242N24131 1910 35 WP MM NOT_NAMED 1910-09-04 06:00:00 NR 20.3812 109.539 main 33 33 __________P___ -1 20.3812 109.539 4 10 253
1910242N24131 1910 35 WP MM NOT_NAMED 1910-09-04 09:00:00 NR 20.2479 109.041 main 54 54 __________P___ -1 20.2479 109.041 4 9 255
1910242N24131 1910 35 WP MM NOT_NAMED 1910-09-04 12:00:00 NR 20.1435 108.581 main 74 74 __________P___ -1 20.1435 108.581 4 9 256
1910242N24131 1910 35 WP MM NOT_NAMED 1910-09-04 15:00:00 NR 20.0395 108.143 main 91 91 __________P___ -1 20.0395 108.143 4 8 255
1910242N24131 1910 35 WP MM NOT_NAMED 1910-09-04 16:00:00 NR 20.0000 108.000 main 99 99 __________O___ -1 20.0000 108.000 4 8 252
1910242N24131 1910 35 WP MM NOT_NAMED 1910-09-04 18:00:00 NR 19.9093 107.714 main 115 92 __________P___ -1 19.9093 107.714 4 9 249
1910242N24131 1910 35 WP MM NOT_NAMED 1910-09-04 21:00:00 NR 19.7478 107.288 main 99 79 __________P___ -1 19.7478 107.288 4 9 247
1910242N24131 1910 35 WP MM NOT_NAMED 1910-09-05 00:00:00 NR 19.5640 106.863 main 79 62 __________P___ -1 19.5640 106.863 4 9 245
1910242N24131 1910 35 WP MM NOT_NAMED 1910-09-05 03:00:00 NR 19.3670 106.441 main 62 52 __________P___ -1 19.3670 106.441 4 9 244
1910242N24131 1910 35 WP MM NOT_NAMED 1910-09-05 04:00:00 NR 19.3000 106.300 main 52 __________O___ -1 19.3000 106.300 4 9 243

Digital Typhoon Data and Search

About IBTrACS Database

This database is a web-friendly format of International Best Track Archive for Climate Stewardship (IBTrACS), a global best track data archive curated by NOAA dating back to 1842.

Updated: 2021-10-21